createdAt,value
2023-05-14T00:00:29.996Z,38.97
2023-05-14T00:01:30.021Z,38.92
2023-05-14T00:02:30.194Z,38.85
2023-05-14T00:03:30.181Z,38.82
2023-05-14T00:04:30.158Z,38.79
2023-05-14T00:05:30.170Z,38.76
2023-05-14T00:06:30.210Z,38.76
2023-05-14T00:07:30.256Z,38.73
2023-05-14T00:08:30.305Z,38.74
2023-05-14T00:09:30.340Z,38.71
2023-05-14T00:10:30.390Z,38.72
2023-05-14T00:11:30.427Z,38.70
2023-05-14T00:12:30.501Z,38.69
2023-05-14T00:13:30.522Z,38.69
2023-05-14T00:14:30.575Z,38.69
2023-05-14T00:15:31.794Z,38.71
2023-05-14T00:16:30.692Z,38.69
2023-05-14T00:17:30.697Z,38.69
2023-05-14T00:18:30.608Z,38.69
2023-05-14T00:19:30.617Z,38.69
2023-05-14T00:20:30.623Z,38.68
2023-05-14T00:21:30.581Z,38.70
2023-05-14T00:22:30.568Z,38.70
2023-05-14T00:23:30.561Z,38.66
2023-05-14T00:24:30.557Z,38.69
2023-05-14T00:25:30.548Z,38.71
2023-05-14T00:26:30.546Z,38.69
2023-05-14T00:27:30.529Z,38.70
2023-05-14T00:28:30.549Z,38.67
2023-05-14T00:29:30.524Z,38.68
2023-05-14T00:30:30.503Z,38.71
2023-05-14T00:31:30.582Z,38.70
2023-05-14T00:32:30.549Z,38.68
2023-05-14T00:33:30.507Z,38.68
2023-05-14T00:34:30.483Z,38.69
2023-05-14T00:35:30.483Z,38.69
2023-05-14T00:36:30.460Z,38.69
2023-05-14T00:37:30.460Z,38.68
2023-05-14T00:38:30.450Z,38.71
2023-05-14T00:39:30.461Z,38.68
2023-05-14T00:40:30.532Z,38.67
2023-05-14T00:41:30.576Z,38.65
2023-05-14T00:42:30.644Z,38.70
2023-05-14T00:43:30.684Z,38.71
2023-05-14T00:44:30.768Z,38.68
2023-05-14T00:45:30.803Z,38.69
2023-05-14T00:46:30.892Z,38.68
2023-05-14T00:47:30.993Z,38.70
2023-05-14T00:48:30.994Z,38.68
2023-05-14T00:49:31.050Z,38.66
2023-05-14T00:50:31.089Z,38.68
2023-05-14T00:51:31.130Z,38.68
2023-05-14T00:52:31.192Z,38.69
2023-05-14T00:53:31.237Z,38.67
2023-05-14T00:54:31.286Z,38.70
2023-05-14T00:55:31.341Z,38.68
2023-05-14T00:56:31.393Z,38.67
2023-05-14T00:57:31.440Z,38.67
2023-05-14T00:58:31.495Z,38.69
2023-05-14T00:59:31.557Z,38.66
2023-05-14T01:00:31.653Z,38.69
2023-05-14T01:01:31.761Z,38.70
2023-05-14T01:02:31.756Z,38.69
2023-05-14T01:03:31.866Z,38.66
2023-05-14T01:04:31.842Z,38.70
2023-05-14T01:05:31.935Z,38.67
2023-05-14T01:06:31.937Z,38.68
2023-05-14T01:07:31.995Z,38.66
2023-05-14T01:08:32.049Z,38.70
2023-05-14T01:09:32.099Z,38.68
2023-05-14T01:10:32.158Z,38.68
2023-05-14T01:11:32.215Z,38.69
2023-05-14T01:12:32.269Z,38.67
2023-05-14T01:13:32.332Z,38.68
2023-05-14T01:14:32.391Z,38.67
2023-05-14T01:15:32.456Z,38.70
2023-05-14T01:16:32.555Z,38.69
2023-05-14T01:17:32.581Z,38.67
2023-05-14T01:18:32.663Z,38.70
2023-05-14T01:19:32.685Z,38.68
2023-05-14T01:20:32.749Z,38.68
2023-05-14T01:21:32.800Z,38.68
2023-05-14T01:22:32.863Z,38.66
2023-05-14T01:23:32.928Z,38.67
2023-05-14T01:24:32.994Z,38.66
2023-05-14T01:25:33.429Z,38.68
2023-05-14T01:26:33.450Z,38.66
2023-05-14T01:27:33.456Z,38.67
2023-05-14T01:28:33.441Z,38.65
2023-05-14T01:29:33.423Z,38.68
2023-05-14T01:30:33.435Z,38.68
2023-05-14T01:31:33.466Z,38.66
2023-05-14T01:32:33.549Z,38.68
2023-05-14T01:33:33.533Z,38.69
2023-05-14T01:34:33.598Z,38.65
2023-05-14T01:35:33.668Z,38.66
2023-05-14T01:36:33.770Z,38.69
2023-05-14T01:37:33.797Z,38.66
2023-05-14T01:38:33.854Z,38.67
2023-05-14T01:39:33.916Z,38.66
2023-05-14T01:40:34.311Z,38.67
2023-05-14T01:41:34.313Z,38.67
2023-05-14T01:42:34.304Z,38.66
2023-05-14T01:43:34.354Z,38.68
2023-05-14T01:44:34.301Z,38.67
2023-05-14T01:45:34.327Z,38.66
2023-05-14T01:46:34.444Z,38.66
2023-05-14T01:47:34.410Z,38.68
2023-05-14T01:48:34.464Z,38.65
2023-05-14T01:49:34.508Z,38.64
2023-05-14T01:50:34.597Z,38.68
2023-05-14T01:51:34.621Z,38.70
2023-05-14T01:52:34.681Z,38.65
2023-05-14T01:53:34.744Z,38.67
2023-05-14T01:54:34.802Z,38.66
2023-05-14T01:55:34.860Z,38.65
2023-05-14T01:56:34.933Z,38.66
2023-05-14T01:57:35.002Z,38.67
2023-05-14T01:58:35.043Z,38.65
2023-05-14T01:59:35.135Z,38.65
2023-05-14T02:00:35.164Z,38.67
2023-05-14T02:01:35.279Z,38.63
2023-05-14T02:02:35.325Z,38.63
2023-05-14T02:03:35.370Z,38.65
2023-05-14T02:04:35.437Z,38.66
2023-05-14T02:05:35.483Z,38.67
2023-05-14T02:06:35.531Z,38.66
2023-05-14T02:07:35.626Z,38.63
2023-05-14T02:08:35.666Z,38.64
2023-05-14T02:09:35.724Z,38.64
2023-05-14T02:10:35.790Z,38.66
2023-05-14T02:11:35.852Z,38.66
2023-05-14T02:12:35.911Z,38.66
2023-05-14T02:13:36.019Z,38.66
2023-05-14T02:14:36.047Z,38.65
2023-05-14T02:15:36.200Z,38.65
2023-05-14T02:16:36.177Z,38.64
2023-05-14T02:17:36.254Z,38.63
2023-05-14T02:18:36.308Z,38.64
2023-05-14T02:19:36.356Z,38.64
2023-05-14T02:20:36.444Z,38.62
2023-05-14T02:21:36.466Z,38.64
2023-05-14T02:22:36.513Z,38.66
2023-05-14T02:23:41.653Z,38.64
2023-05-14T02:24:36.560Z,38.68
2023-05-14T02:25:36.547Z,38.67
2023-05-14T02:26:36.540Z,38.67
2023-05-14T02:27:36.537Z,38.67
2023-05-14T02:28:36.524Z,38.64
2023-05-14T02:29:36.517Z,38.65
2023-05-14T02:30:36.520Z,38.62
2023-05-14T02:31:36.545Z,38.65
2023-05-14T02:32:36.622Z,38.65
2023-05-14T02:33:36.550Z,38.64
2023-05-14T02:34:36.494Z,38.67
2023-05-14T02:35:36.478Z,38.63
2023-05-14T02:36:36.516Z,38.65
2023-05-14T02:37:36.464Z,38.64
2023-05-14T02:38:36.467Z,38.65
2023-05-14T02:39:36.446Z,38.64
2023-05-14T02:40:36.444Z,38.64
2023-05-14T02:41:36.452Z,38.63
2023-05-14T02:42:36.440Z,38.64
2023-05-14T02:43:36.427Z,38.65
2023-05-14T02:44:36.421Z,38.65
2023-05-14T02:45:36.411Z,38.65
2023-05-14T02:46:36.437Z,38.64
2023-05-14T02:47:38.235Z,38.63
2023-05-14T02:48:36.440Z,38.65
2023-05-14T02:49:36.450Z,38.63
2023-05-14T02:50:36.427Z,38.66
2023-05-14T02:51:36.424Z,38.65
2023-05-14T02:52:36.447Z,38.65
2023-05-14T02:53:36.428Z,38.64
2023-05-14T02:54:36.456Z,38.61
2023-05-14T02:55:36.395Z,38.66
2023-05-14T02:56:36.385Z,38.64
2023-05-14T02:57:36.377Z,38.63
2023-05-14T02:58:36.373Z,38.64
2023-05-14T02:59:36.378Z,38.65
2023-05-14T03:00:36.376Z,38.61
2023-05-14T03:01:36.358Z,38.66
2023-05-14T03:02:36.415Z,38.62
2023-05-14T03:03:36.345Z,38.63
2023-05-14T03:04:36.327Z,38.65
2023-05-14T03:05:37.061Z,38.67
2023-05-14T03:06:36.319Z,38.63
2023-05-14T03:07:36.313Z,38.63
2023-05-14T03:08:36.338Z,38.64
2023-05-14T03:09:38.096Z,38.63
2023-05-14T03:10:36.375Z,38.61
2023-05-14T03:11:36.284Z,38.65
2023-05-14T03:12:36.273Z,38.64
2023-05-14T03:13:36.563Z,38.64
2023-05-14T03:14:36.275Z,38.64
2023-05-14T03:15:36.279Z,38.63
2023-05-14T03:16:36.358Z,38.65
2023-05-14T03:17:36.340Z,38.62
2023-05-14T03:18:36.294Z,38.64
2023-05-14T03:19:36.231Z,38.63
2023-05-14T03:20:36.221Z,38.61
2023-05-14T03:21:36.217Z,38.64
2023-05-14T03:22:36.218Z,38.62
2023-05-14T03:23:36.207Z,38.64
2023-05-14T03:24:36.311Z,38.61
2023-05-14T03:25:36.267Z,38.64
2023-05-14T03:26:36.188Z,38.62
2023-05-14T03:27:36.181Z,38.64
2023-05-14T03:28:36.172Z,38.62
2023-05-14T03:29:36.162Z,38.65
2023-05-14T03:30:36.275Z,38.62
2023-05-14T03:31:36.144Z,38.63
2023-05-14T03:32:36.145Z,38.62
2023-05-14T03:33:36.127Z,38.64
2023-05-14T03:34:36.125Z,38.62
2023-05-14T03:35:36.125Z,38.62
2023-05-14T03:36:36.177Z,38.62
2023-05-14T03:37:36.225Z,38.62
2023-05-14T03:38:36.267Z,38.62
2023-05-14T03:39:36.306Z,38.60
2023-05-14T03:40:36.396Z,38.60
2023-05-14T03:41:36.414Z,38.61
2023-05-14T03:42:36.458Z,38.62
2023-05-14T03:43:36.520Z,38.63
2023-05-14T03:44:36.562Z,38.62
2023-05-14T03:45:36.625Z,38.61
2023-05-14T03:46:36.666Z,38.60
2023-05-14T03:47:36.776Z,38.63
2023-05-14T03:48:36.823Z,38.62
2023-05-14T03:49:36.806Z,38.62
2023-05-14T03:50:36.852Z,38.62
2023-05-14T03:51:36.895Z,38.60
2023-05-14T03:52:36.935Z,38.62
2023-05-14T03:53:36.969Z,38.61
2023-05-14T03:54:36.995Z,38.62
2023-05-14T03:55:37.042Z,38.60
2023-05-14T03:56:37.111Z,38.61
2023-05-14T03:57:37.117Z,38.58
2023-05-14T03:58:37.155Z,38.60
2023-05-14T03:59:37.177Z,38.61
2023-05-14T04:00:37.199Z,38.61
2023-05-14T04:01:37.583Z,38.61
2023-05-14T04:02:37.370Z,38.60
2023-05-14T04:03:37.544Z,38.61
2023-05-14T04:04:37.328Z,38.60
2023-05-14T04:05:37.349Z,38.60
2023-05-14T04:06:37.363Z,38.64
2023-05-14T04:07:37.402Z,38.59
2023-05-14T04:08:37.418Z,38.62
2023-05-14T04:09:37.450Z,38.62
2023-05-14T04:10:37.476Z,38.59
2023-05-14T04:11:37.504Z,38.59
2023-05-14T04:12:37.530Z,38.59
2023-05-14T04:13:37.532Z,38.58
2023-05-14T04:14:37.539Z,38.59
2023-05-14T04:15:37.568Z,38.58
2023-05-14T04:16:37.601Z,38.61
2023-05-14T04:17:37.625Z,38.59
2023-05-14T04:18:37.609Z,38.60
2023-05-14T04:19:37.593Z,38.60
2023-05-14T04:20:37.615Z,38.60
2023-05-14T04:21:37.625Z,38.59
2023-05-14T04:22:37.653Z,38.59
2023-05-14T04:23:37.664Z,38.59
2023-05-14T04:24:37.669Z,38.61
2023-05-14T04:25:37.699Z,38.58
2023-05-14T04:26:37.715Z,38.58
2023-05-14T04:27:37.737Z,38.57
2023-05-14T04:28:37.789Z,38.59
2023-05-14T04:29:37.770Z,38.58
2023-05-14T04:30:37.791Z,38.58
2023-05-14T04:31:37.854Z,38.58
2023-05-14T04:32:37.861Z,38.58
2023-05-14T04:33:37.860Z,38.55
2023-05-14T04:34:37.877Z,38.59
2023-05-14T04:35:37.904Z,38.56
2023-05-14T04:36:37.941Z,38.57
2023-05-14T04:37:37.959Z,38.55
2023-05-14T04:38:37.964Z,38.56
2023-05-14T04:39:37.996Z,38.58
2023-05-14T04:40:38.043Z,38.54
2023-05-14T04:41:38.111Z,38.57
2023-05-14T04:42:38.102Z,38.58
2023-05-14T04:43:38.159Z,38.59
2023-05-14T04:44:38.258Z,38.55
2023-05-14T04:45:38.295Z,38.57
2023-05-14T04:46:38.342Z,38.55
2023-05-14T04:47:38.379Z,38.54
2023-05-14T04:48:38.342Z,38.56
2023-05-14T04:49:38.368Z,38.56
2023-05-14T04:50:38.392Z,38.56
2023-05-14T04:51:38.423Z,38.55
2023-05-14T04:52:38.456Z,38.53
2023-05-14T04:53:38.483Z,38.55
2023-05-14T04:54:38.574Z,38.57
2023-05-14T04:55:38.518Z,38.55
2023-05-14T04:56:38.551Z,38.55
2023-05-14T04:57:38.583Z,38.54
2023-05-14T04:58:38.621Z,38.55
2023-05-14T04:59:38.647Z,38.52
2023-05-14T05:00:38.689Z,38.57
2023-05-14T05:01:38.841Z,38.57
2023-05-14T05:02:38.728Z,38.55
2023-05-14T05:03:38.778Z,38.55
2023-05-14T05:04:38.763Z,38.55
2023-05-14T05:05:38.784Z,38.55
2023-05-14T05:06:38.815Z,38.55
2023-05-14T05:07:38.847Z,38.52
2023-05-14T05:08:38.856Z,38.53
2023-05-14T05:09:38.870Z,38.55
2023-05-14T05:10:38.893Z,38.54
2023-05-14T05:11:38.913Z,38.53
2023-05-14T05:12:38.938Z,38.52
2023-05-14T05:13:38.946Z,38.53
2023-05-14T05:14:38.987Z,38.52
2023-05-14T05:15:39.070Z,38.51
2023-05-14T05:16:39.447Z,38.52
2023-05-14T05:17:39.439Z,38.52
2023-05-14T05:18:39.461Z,38.51
2023-05-14T05:19:43.673Z,38.52
2023-05-14T05:20:39.419Z,38.53
2023-05-14T05:21:39.440Z,38.51
2023-05-14T05:22:39.437Z,38.52
2023-05-14T05:23:39.420Z,38.53
2023-05-14T05:24:39.425Z,38.52
2023-05-14T05:25:39.420Z,38.50
2023-05-14T05:26:39.425Z,38.51
2023-05-14T05:27:39.424Z,38.50
2023-05-14T05:28:39.375Z,38.53
2023-05-14T05:29:39.382Z,38.51
2023-05-14T05:30:39.004Z,38.52
2023-05-14T05:31:39.031Z,38.50
2023-05-14T05:32:39.078Z,38.52
2023-05-14T05:33:39.017Z,38.52
2023-05-14T05:34:38.990Z,38.50
2023-05-14T05:35:38.959Z,38.52
2023-05-14T05:36:38.960Z,38.49
2023-05-14T05:37:38.943Z,38.51
2023-05-14T05:38:38.947Z,38.51
2023-05-14T05:39:38.927Z,38.48
2023-05-14T05:40:38.942Z,38.50
2023-05-14T05:41:38.918Z,38.51
2023-05-14T05:42:38.905Z,38.52
2023-05-14T05:43:38.910Z,38.49
2023-05-14T05:44:38.897Z,38.47
2023-05-14T05:45:38.883Z,38.48
2023-05-14T05:46:38.954Z,38.49
2023-05-14T05:47:38.955Z,38.48
2023-05-14T05:48:38.891Z,38.49
2023-05-14T05:49:38.863Z,38.46
2023-05-14T05:50:38.860Z,38.45
2023-05-14T05:51:38.876Z,38.45
2023-05-14T05:52:38.842Z,38.44
2023-05-14T05:53:38.853Z,38.43
2023-05-14T05:54:38.825Z,38.44
2023-05-14T05:55:38.822Z,38.44
2023-05-14T05:56:38.853Z,38.43
2023-05-14T05:57:38.881Z,38.43
2023-05-14T05:58:38.898Z,38.45
2023-05-14T05:59:38.935Z,38.43
2023-05-14T06:00:38.962Z,38.43
2023-05-14T06:01:39.037Z,38.41
2023-05-14T06:02:39.580Z,38.40
2023-05-14T06:03:39.437Z,38.41
2023-05-14T06:04:39.436Z,38.41
2023-05-14T06:05:39.465Z,38.43
2023-05-14T06:06:39.422Z,38.40
2023-05-14T06:07:39.444Z,38.40
2023-05-14T06:08:39.430Z,38.39
2023-05-14T06:09:39.474Z,38.41
2023-05-14T06:10:40.351Z,38.40
2023-05-14T06:11:39.435Z,38.40
2023-05-14T06:12:39.430Z,38.39
2023-05-14T06:13:39.410Z,38.39
2023-05-14T06:14:39.424Z,38.39
2023-05-14T06:15:39.415Z,38.37
2023-05-14T06:16:39.475Z,38.38
2023-05-14T06:17:39.479Z,38.35
2023-05-14T06:18:39.422Z,38.35
2023-05-14T06:19:39.420Z,38.37
2023-05-14T06:20:39.485Z,38.36
2023-05-14T06:21:39.506Z,38.35
2023-05-14T06:22:39.528Z,38.35
2023-05-14T06:23:39.562Z,38.38
2023-05-14T06:24:39.585Z,38.35
2023-05-14T06:25:39.607Z,38.36
2023-05-14T06:26:39.629Z,38.34
2023-05-14T06:27:39.652Z,38.35
2023-05-14T06:28:39.686Z,38.31
2023-05-14T06:29:39.719Z,38.31
2023-05-14T06:30:39.770Z,38.32
2023-05-14T06:31:39.834Z,38.32
2023-05-14T06:32:39.851Z,38.30
2023-05-14T06:33:39.855Z,38.30
2023-05-14T06:34:39.911Z,38.30
2023-05-14T06:35:40.354Z,38.28
2023-05-14T06:36:40.379Z,38.28
2023-05-14T06:37:40.359Z,38.28
2023-05-14T06:38:40.361Z,38.29
2023-05-14T06:39:40.354Z,38.29
2023-05-14T06:40:40.363Z,38.28
2023-05-14T06:41:40.366Z,38.28
2023-05-14T06:42:40.361Z,38.26
2023-05-14T06:43:40.379Z,38.26
2023-05-14T06:44:40.422Z,38.28
2023-05-14T06:45:40.473Z,38.27
2023-05-14T06:46:40.528Z,38.27
2023-05-14T06:47:40.609Z,38.26
2023-05-14T06:48:40.648Z,38.27
2023-05-14T06:49:40.695Z,38.28
2023-05-14T06:50:40.717Z,38.26
2023-05-14T06:51:40.782Z,38.25
2023-05-14T06:52:40.930Z,38.27
2023-05-14T06:53:40.898Z,38.26
2023-05-14T06:54:40.949Z,38.25
2023-05-14T06:55:40.991Z,38.27
2023-05-14T06:56:41.041Z,38.25
2023-05-14T06:57:41.170Z,38.24
2023-05-14T06:58:41.220Z,38.24
2023-05-14T06:59:41.216Z,38.25
2023-05-14T07:00:41.285Z,38.25
2023-05-14T07:01:41.365Z,38.22
2023-05-14T07:02:41.432Z,38.23
2023-05-14T07:03:41.437Z,38.22
2023-05-14T07:04:41.604Z,38.21
2023-05-14T07:05:41.542Z,38.22
2023-05-14T07:06:41.594Z,38.22
2023-05-14T07:07:41.641Z,38.19
2023-05-14T07:08:41.714Z,38.20
2023-05-14T07:09:41.747Z,38.20
2023-05-14T07:10:41.799Z,38.21
2023-05-14T07:11:41.868Z,38.20
2023-05-14T07:12:41.945Z,38.20
2023-05-14T07:13:41.981Z,38.19
2023-05-14T07:14:42.074Z,38.20
2023-05-14T07:15:42.086Z,38.20
2023-05-14T07:16:42.177Z,38.19
2023-05-14T07:17:42.310Z,38.18
2023-05-14T07:18:42.390Z,38.19
2023-05-14T07:19:42.342Z,38.20
2023-05-14T07:20:42.440Z,38.17
2023-05-14T07:21:42.487Z,38.18
2023-05-14T07:22:42.538Z,38.16
2023-05-14T07:23:42.581Z,38.13
2023-05-14T07:24:42.690Z,38.17
2023-05-14T07:25:42.717Z,38.17
2023-05-14T07:26:42.776Z,38.16
2023-05-14T07:27:42.872Z,38.14
2023-05-14T07:28:42.912Z,38.14
2023-05-14T07:29:42.966Z,38.14
2023-05-14T07:30:43.024Z,38.14
2023-05-14T07:31:43.159Z,38.14
2023-05-14T07:32:43.203Z,38.14
2023-05-14T07:33:43.218Z,38.13
2023-05-14T07:34:43.285Z,38.13
2023-05-14T07:35:43.350Z,38.14
2023-05-14T07:36:43.414Z,38.12
2023-05-14T07:37:43.518Z,38.10
2023-05-14T07:38:43.534Z,38.14
2023-05-14T07:39:43.601Z,38.13
2023-05-14T07:40:43.716Z,38.11
2023-05-14T07:41:43.723Z,38.12
2023-05-14T07:42:43.780Z,38.15
2023-05-14T07:43:43.866Z,38.11
2023-05-14T07:44:43.900Z,38.13
2023-05-14T07:45:43.961Z,38.12
2023-05-14T07:46:44.026Z,38.11
2023-05-14T07:47:44.157Z,38.10
2023-05-14T07:48:44.176Z,38.13
2023-05-14T07:49:44.208Z,38.11
2023-05-14T07:50:44.272Z,38.12
2023-05-14T07:51:44.324Z,38.12
2023-05-14T07:52:44.658Z,38.13
2023-05-14T07:53:44.456Z,38.11
2023-05-14T07:54:44.508Z,38.12
2023-05-14T07:55:44.569Z,38.11
2023-05-14T07:56:44.663Z,38.11
2023-05-14T07:57:44.696Z,38.11
2023-05-14T07:58:44.760Z,38.08
2023-05-14T07:59:44.806Z,38.10
2023-05-14T08:00:44.863Z,38.11
2023-05-14T08:01:44.943Z,38.11
2023-05-14T08:02:45.220Z,38.11
2023-05-14T08:03:45.160Z,38.11
2023-05-14T08:04:45.468Z,38.09
2023-05-14T08:05:45.481Z,38.08
2023-05-14T08:06:45.528Z,38.10
2023-05-14T08:07:45.477Z,38.10
2023-05-14T08:08:45.481Z,38.11
2023-05-14T08:09:45.484Z,38.09
2023-05-14T08:10:45.525Z,38.11
2023-05-14T08:11:45.491Z,38.11
2023-05-14T08:12:45.560Z,38.11
2023-05-14T08:13:45.583Z,38.10
2023-05-14T08:14:45.637Z,38.11
2023-05-14T08:15:45.710Z,38.08
2023-05-14T08:16:45.798Z,38.09
2023-05-14T08:17:45.869Z,38.08
2023-05-14T08:18:45.961Z,38.12
2023-05-14T08:19:45.906Z,38.13
2023-05-14T08:20:45.980Z,38.09
2023-05-14T08:21:46.416Z,38.08
2023-05-14T08:22:46.419Z,38.10
2023-05-14T08:23:46.418Z,38.11
2023-05-14T08:24:46.428Z,38.09
2023-05-14T08:25:46.420Z,38.10
2023-05-14T08:26:46.483Z,38.08
2023-05-14T08:27:46.432Z,38.09
2023-05-14T08:28:46.446Z,38.09
2023-05-14T08:29:46.474Z,38.07
2023-05-14T08:30:46.494Z,38.05
2023-05-14T08:31:46.502Z,38.09
2023-05-14T08:32:46.615Z,38.08
2023-05-14T08:33:46.596Z,38.07
2023-05-14T08:34:46.669Z,38.07
2023-05-14T08:35:46.699Z,38.06
2023-05-14T08:36:46.740Z,38.07
2023-05-14T08:37:46.787Z,38.06
2023-05-14T08:38:46.832Z,38.06
2023-05-14T08:39:46.898Z,38.06
2023-05-14T08:40:46.934Z,38.06
2023-05-14T08:41:47.026Z,38.06
2023-05-14T08:42:47.020Z,38.04
2023-05-14T08:43:47.058Z,38.07
2023-05-14T08:44:47.144Z,38.05
2023-05-14T08:45:47.155Z,38.04
2023-05-14T08:46:47.212Z,38.04
2023-05-14T08:47:47.257Z,38.03
2023-05-14T08:48:47.373Z,38.05
2023-05-14T08:49:47.340Z,38.01
2023-05-14T08:50:47.391Z,38.02
2023-05-14T08:51:47.440Z,38.00
2023-05-14T08:52:47.470Z,38.00
2023-05-14T08:53:47.520Z,38.01
2023-05-14T08:54:47.553Z,37.98
2023-05-14T08:55:47.590Z,37.99
2023-05-14T08:56:48.900Z,37.96
2023-05-14T08:57:47.628Z,37.98
2023-05-14T08:58:47.601Z,37.97
2023-05-14T08:59:47.600Z,37.94
2023-05-14T09:00:47.623Z,37.95
2023-05-14T09:01:47.669Z,37.94
2023-05-14T09:02:47.646Z,37.95
2023-05-14T09:03:47.630Z,37.92
2023-05-14T09:04:47.565Z,37.91
2023-05-14T09:05:47.564Z,37.91
2023-05-14T09:06:47.554Z,37.93
2023-05-14T09:07:47.545Z,37.87
2023-05-14T09:08:47.540Z,37.85
2023-05-14T09:09:47.530Z,37.84
2023-05-14T09:10:47.526Z,37.83
2023-05-14T09:11:47.521Z,37.80
2023-05-14T09:12:47.522Z,37.81
2023-05-14T09:13:47.505Z,37.83
2023-05-14T09:14:47.501Z,37.80
2023-05-14T09:15:47.502Z,37.80
2023-05-14T09:16:47.554Z,37.81
2023-05-14T09:17:47.550Z,37.80
2023-05-14T09:18:47.578Z,37.79
2023-05-14T09:19:47.470Z,37.80
2023-05-14T09:20:47.462Z,37.81
2023-05-14T09:21:47.454Z,37.81
2023-05-14T09:22:47.448Z,37.80
2023-05-14T09:23:47.437Z,37.79
2023-05-14T09:24:47.440Z,37.76
2023-05-14T09:25:47.438Z,37.75
2023-05-14T09:26:47.449Z,37.78
2023-05-14T09:27:47.418Z,37.77
2023-05-14T09:28:47.480Z,37.77
2023-05-14T09:29:47.404Z,37.78
2023-05-14T09:30:47.401Z,37.78
2023-05-14T09:31:47.532Z,37.80
2023-05-14T09:32:47.472Z,37.79
2023-05-14T09:33:47.404Z,37.81
2023-05-14T09:34:47.378Z,37.81
2023-05-14T09:35:47.359Z,37.78
2023-05-14T09:36:47.358Z,37.78
2023-05-14T09:37:47.370Z,37.80
2023-05-14T09:38:47.342Z,37.82
2023-05-14T09:39:47.334Z,37.82
2023-05-14T09:40:47.340Z,37.81
2023-05-14T09:41:47.316Z,37.80
2023-05-14T09:42:47.339Z,37.83
2023-05-14T09:43:47.372Z,37.80
2023-05-14T09:44:47.386Z,37.80
2023-05-14T09:45:47.433Z,37.82
2023-05-14T09:46:47.573Z,37.81
2023-05-14T09:47:47.673Z,37.78
2023-05-14T09:48:47.518Z,37.80
2023-05-14T09:49:47.506Z,37.81
2023-05-14T09:50:47.542Z,37.79
2023-05-14T09:51:47.553Z,37.80
2023-05-14T09:52:47.585Z,37.79
2023-05-14T09:53:47.604Z,37.80
2023-05-14T09:54:47.623Z,37.79
2023-05-14T09:55:47.650Z,37.78
2023-05-14T09:56:47.687Z,37.81
2023-05-14T09:57:47.701Z,37.80
2023-05-14T09:58:47.722Z,37.79
2023-05-14T09:59:47.746Z,37.80
2023-05-14T10:00:47.841Z,37.80
2023-05-14T10:01:47.799Z,37.80
2023-05-14T10:02:47.851Z,37.80
2023-05-14T10:03:47.844Z,37.83
2023-05-14T10:04:47.944Z,37.79
2023-05-14T10:05:47.890Z,37.81
2023-05-14T10:06:47.905Z,37.82
2023-05-14T10:07:47.939Z,37.82
2023-05-14T10:08:47.951Z,37.83
2023-05-14T10:09:47.982Z,37.81
2023-05-14T10:10:48.001Z,37.85
2023-05-14T10:11:48.016Z,37.83
2023-05-14T10:12:48.073Z,37.82
2023-05-14T10:13:48.064Z,37.83
2023-05-14T10:14:48.088Z,37.83
2023-05-14T10:15:48.115Z,37.84
2023-05-14T10:16:48.237Z,37.84
2023-05-14T10:17:48.204Z,37.84
2023-05-14T10:18:48.222Z,37.84
2023-05-14T10:19:48.208Z,37.84
2023-05-14T10:20:48.259Z,37.84
2023-05-14T10:21:48.256Z,37.83
2023-05-14T10:22:48.287Z,37.85
2023-05-14T10:23:48.314Z,37.84
2023-05-14T10:24:48.340Z,37.83
2023-05-14T10:25:48.368Z,37.84
2023-05-14T10:26:48.396Z,37.86
2023-05-14T10:27:48.411Z,37.83
2023-05-14T10:28:48.446Z,37.83
2023-05-14T10:29:48.465Z,37.83
2023-05-14T10:30:48.520Z,37.84
2023-05-14T10:31:48.608Z,37.82
2023-05-14T10:32:48.556Z,37.83
2023-05-14T10:33:48.560Z,37.82
2023-05-14T10:34:48.577Z,37.80
2023-05-14T10:35:48.604Z,37.79
2023-05-14T10:36:48.650Z,37.81
2023-05-14T10:37:48.662Z,37.78
2023-05-14T10:38:48.667Z,37.80
2023-05-14T10:39:48.688Z,37.80
2023-05-14T10:40:48.713Z,37.79
2023-05-14T10:41:48.731Z,37.78
2023-05-14T10:42:48.760Z,37.79
2023-05-14T10:43:48.781Z,37.78
2023-05-14T10:44:48.805Z,37.78
2023-05-14T10:45:48.831Z,37.78
2023-05-14T10:46:48.902Z,37.76
2023-05-14T10:47:48.976Z,37.76
2023-05-14T10:48:48.903Z,37.79
2023-05-14T10:49:48.921Z,37.76
2023-05-14T10:50:49.058Z,37.75
2023-05-14T10:51:48.972Z,37.75
2023-05-14T10:52:49.023Z,37.74
2023-05-14T10:53:49.028Z,37.76
2023-05-14T10:54:49.054Z,37.75
2023-05-14T10:55:49.073Z,37.76
2023-05-14T10:56:49.105Z,37.73
2023-05-14T10:57:49.131Z,37.76
2023-05-14T10:58:49.154Z,37.77
2023-05-14T10:59:49.183Z,37.75
2023-05-14T11:00:49.204Z,37.75
2023-05-14T11:01:49.258Z,37.78
2023-05-14T11:02:49.283Z,37.76
2023-05-14T11:03:49.354Z,37.75
2023-05-14T11:04:49.298Z,37.76
2023-05-14T11:05:49.332Z,37.77
2023-05-14T11:06:49.355Z,37.78
2023-05-14T11:07:49.377Z,37.78
2023-05-14T11:08:49.426Z,37.76
2023-05-14T11:09:49.423Z,37.78
2023-05-14T11:10:49.444Z,37.76
2023-05-14T11:11:49.478Z,37.78
2023-05-14T11:12:49.495Z,37.77
2023-05-14T11:13:49.559Z,37.77
2023-05-14T11:14:49.533Z,37.76
2023-05-14T11:15:49.555Z,37.77
2023-05-14T11:16:49.610Z,37.77
2023-05-14T11:17:49.711Z,37.78
2023-05-14T11:18:49.686Z,37.78
2023-05-14T11:19:51.167Z,37.78
2023-05-14T11:20:49.638Z,37.77
2023-05-14T11:21:49.702Z,37.76
2023-05-14T11:22:49.634Z,37.76
2023-05-14T11:23:49.630Z,37.78
2023-05-14T11:24:49.638Z,37.79
2023-05-14T11:25:49.636Z,37.76
2023-05-14T11:26:49.594Z,37.77
2023-05-14T11:27:49.591Z,37.77
2023-05-14T11:28:49.612Z,37.76
2023-05-14T11:29:49.576Z,37.79
2023-05-14T11:30:49.567Z,37.79
2023-05-14T11:31:49.605Z,37.77
2023-05-14T11:32:49.662Z,37.76
2023-05-14T11:33:49.548Z,37.78
2023-05-14T11:34:49.557Z,37.76
2023-05-14T11:35:49.536Z,37.77
2023-05-14T11:36:49.526Z,37.77
2023-05-14T11:37:49.520Z,37.79
2023-05-14T11:38:49.529Z,37.79
2023-05-14T11:39:49.503Z,37.79
2023-05-14T11:40:49.739Z,37.79
2023-05-14T11:41:49.487Z,37.79
2023-05-14T11:42:49.482Z,37.79
2023-05-14T11:43:49.487Z,37.78
2023-05-14T11:44:49.462Z,37.80
2023-05-14T11:45:49.478Z,37.80
2023-05-14T11:46:49.450Z,37.82
2023-05-14T11:47:49.489Z,37.82
2023-05-14T11:48:49.446Z,37.80
2023-05-14T11:49:49.431Z,37.83
2023-05-14T11:50:49.432Z,37.81
2023-05-14T11:51:49.432Z,37.81
2023-05-14T11:52:49.407Z,37.82
2023-05-14T11:53:49.413Z,37.79
2023-05-14T11:54:49.395Z,37.79
2023-05-14T11:55:49.393Z,37.82
2023-05-14T11:56:49.415Z,37.81
2023-05-14T11:57:49.390Z,37.83
2023-05-14T11:58:49.387Z,37.83
2023-05-14T11:59:49.360Z,37.83
2023-05-14T12:00:49.360Z,37.82
2023-05-14T12:01:50.688Z,37.82
2023-05-14T12:02:49.461Z,37.82
2023-05-14T12:03:49.479Z,37.84
2023-05-14T12:04:49.501Z,37.82
2023-05-14T12:05:49.445Z,37.82
2023-05-14T12:06:49.440Z,37.83
2023-05-14T12:07:49.477Z,37.79
2023-05-14T12:08:49.496Z,37.81
2023-05-14T12:09:49.783Z,37.83
2023-05-14T12:10:49.555Z,37.82
2023-05-14T12:11:49.581Z,37.85
2023-05-14T12:12:49.629Z,37.83
2023-05-14T12:13:49.631Z,37.84
2023-05-14T12:14:49.670Z,37.84
2023-05-14T12:15:49.734Z,37.86
2023-05-14T12:16:49.703Z,37.86
2023-05-14T12:17:49.763Z,37.86
2023-05-14T12:18:49.758Z,37.87
2023-05-14T12:19:49.786Z,37.87
2023-05-14T12:20:49.799Z,37.87
2023-05-14T12:21:49.825Z,37.87
2023-05-14T12:22:49.868Z,37.88
2023-05-14T12:23:49.865Z,37.87
2023-05-14T12:24:49.889Z,37.87
2023-05-14T12:25:49.915Z,37.87
2023-05-14T12:26:49.956Z,37.88
2023-05-14T12:27:49.974Z,37.88
2023-05-14T12:28:50.023Z,37.88
2023-05-14T12:29:50.020Z,37.89
2023-05-14T12:30:50.049Z,37.88
2023-05-14T12:31:50.184Z,37.92
2023-05-14T12:32:50.100Z,37.91
2023-05-14T12:33:50.125Z,37.90
2023-05-14T12:34:50.142Z,37.87
2023-05-14T12:35:50.162Z,37.92
2023-05-14T12:36:50.196Z,37.88
2023-05-14T12:37:50.270Z,37.91
2023-05-14T12:38:50.248Z,37.90
2023-05-14T12:39:50.266Z,37.90
2023-05-14T12:40:50.292Z,37.91
2023-05-14T12:41:50.313Z,37.91
2023-05-14T12:42:50.336Z,37.90
2023-05-14T12:43:50.348Z,37.92
2023-05-14T12:44:50.451Z,37.92
2023-05-14T12:45:50.390Z,37.90
2023-05-14T12:46:50.456Z,37.88
2023-05-14T12:47:50.501Z,37.91
2023-05-14T12:48:53.084Z,37.92
2023-05-14T12:49:50.459Z,37.92
2023-05-14T12:50:50.439Z,37.88
2023-05-14T12:51:56.691Z,37.92
2023-05-14T12:52:50.435Z,37.91